sensor_id;sensor_type;location;lat;lon;timestamp;temperature;humidity
3408;DHT22;1717;50.240;8.406;2023-08-12T00:01:17;22.10;97.90
3408;DHT22;1717;50.240;8.406;2023-08-12T00:03:48;22.20;98.00
3408;DHT22;1717;50.240;8.406;2023-08-12T00:06:14;22.10;98.00
3408;DHT22;1717;50.240;8.406;2023-08-12T00:08:41;22.20;98.10
3408;DHT22;1717;50.240;8.406;2023-08-12T00:11:08;22.20;98.20
3408;DHT22;1717;50.240;8.406;2023-08-12T00:13:35;22.10;98.20
3408;DHT22;1717;50.240;8.406;2023-08-12T00:16:02;22.10;98.30
3408;DHT22;1717;50.240;8.406;2023-08-12T00:18:29;22.10;98.40
3408;DHT22;1717;50.240;8.406;2023-08-12T00:20:57;22.20;98.60
3408;DHT22;1717;50.240;8.406;2023-08-12T00:23:24;22.10;98.60
3408;DHT22;1717;50.240;8.406;2023-08-12T00:25:51;22.10;98.70
3408;DHT22;1717;50.240;8.406;2023-08-12T00:28:18;22.10;98.80
3408;DHT22;1717;50.240;8.406;2023-08-12T00:30:48;22.10;98.80
3408;DHT22;1717;50.240;8.406;2023-08-12T00:33:14;22.20;98.90
3408;DHT22;1717;50.240;8.406;2023-08-12T00:35:41;22.20;99.00
3408;DHT22;1717;50.240;8.406;2023-08-12T00:38:09;22.20;99.00
3408;DHT22;1717;50.240;8.406;2023-08-12T00:40:36;22.20;98.90
3408;DHT22;1717;50.240;8.406;2023-08-12T00:43:03;22.20;99.00
3408;DHT22;1717;50.240;8.406;2023-08-12T00:45:30;22.20;99.10
3408;DHT22;1717;50.240;8.406;2023-08-12T00:47:57;22.20;99.10
3408;DHT22;1717;50.240;8.406;2023-08-12T00:50:24;22.30;99.10
3408;DHT22;1717;50.240;8.406;2023-08-12T00:52:51;22.30;99.10
3408;DHT22;1717;50.240;8.406;2023-08-12T00:55:20;22.30;99.10
3408;DHT22;1717;50.240;8.406;2023-08-12T00:57:47;22.30;99.20
3408;DHT22;1717;50.240;8.406;2023-08-12T01:00:16;22.30;99.20
3408;DHT22;1717;50.240;8.406;2023-08-12T01:02:44;22.30;99.20
3408;DHT22;1717;50.240;8.406;2023-08-12T01:05:13;22.30;99.30
3408;DHT22;1717;50.240;8.406;2023-08-12T01:07:40;22.30;99.30
3408;DHT22;1717;50.240;8.406;2023-08-12T01:10:08;22.30;99.40
3408;DHT22;1717;50.240;8.406;2023-08-12T01:12:47;22.30;99.40
3408;DHT22;1717;50.240;8.406;2023-08-12T01:15:18;22.30;99.50
3408;DHT22;1717;50.240;8.406;2023-08-12T01:17:47;22.30;99.50
3408;DHT22;1717;50.240;8.406;2023-08-12T01:20:20;22.30;99.50
3408;DHT22;1717;50.240;8.406;2023-08-12T01:22:52;22.30;99.50
3408;DHT22;1717;50.240;8.406;2023-08-12T01:25:23;22.30;99.60
3408;DHT22;1717;50.240;8.406;2023-08-12T01:27:50;22.20;99.60
3408;DHT22;1717;50.240;8.406;2023-08-12T01:30:18;22.30;99.60
3408;DHT22;1717;50.240;8.406;2023-08-12T01:32:53;22.30;99.70
3408;DHT22;1717;50.240;8.406;2023-08-12T01:35:23;22.30;99.70
3408;DHT22;1717;50.240;8.406;2023-08-12T01:37:53;22.30;99.60
3408;DHT22;1717;50.240;8.406;2023-08-12T01:40:24;22.30;99.60
3408;DHT22;1717;50.240;8.406;2023-08-12T01:42:52;22.30;99.50
3408;DHT22;1717;50.240;8.406;2023-08-12T01:45:19;22.30;99.50
3408;DHT22;1717;50.240;8.406;2023-08-12T01:47:46;22.40;99.50
3408;DHT22;1717;50.240;8.406;2023-08-12T01:50:15;22.40;99.50
3408;DHT22;1717;50.240;8.406;2023-08-12T01:52:42;22.40;99.40
3408;DHT22;1717;50.240;8.406;2023-08-12T01:55:09;22.40;99.20
3408;DHT22;1717;50.240;8.406;2023-08-12T01:57:37;22.40;99.20
3408;DHT22;1717;50.240;8.406;2023-08-12T02:00:05;22.40;99.10
3408;DHT22;1717;50.240;8.406;2023-08-12T02:02:33;22.40;99.00
3408;DHT22;1717;50.240;8.406;2023-08-12T02:05:00;22.50;99.00
3408;DHT22;1717;50.240;8.406;2023-08-12T02:07:26;22.50;99.00
3408;DHT22;1717;50.240;8.406;2023-08-12T02:09:53;22.50;99.30
3408;DHT22;1717;50.240;8.406;2023-08-12T02:12:20;22.50;98.90
3408;DHT22;1717;50.240;8.406;2023-08-12T02:14:48;22.50;98.90
3408;DHT22;1717;50.240;8.406;2023-08-12T02:17:15;22.50;98.80
3408;DHT22;1717;50.240;8.406;2023-08-12T02:19:42;22.50;98.90
3408;DHT22;1717;50.240;8.406;2023-08-12T02:22:09;22.50;99.00
3408;DHT22;1717;50.240;8.406;2023-08-12T02:24:36;22.40;99.00
3408;DHT22;1717;50.240;8.406;2023-08-12T02:27:03;22.40;99.00
3408;DHT22;1717;50.240;8.406;2023-08-12T02:29:30;22.40;99.10
3408;DHT22;1717;50.240;8.406;2023-08-12T02:31:58;22.30;99.10
3408;DHT22;1717;50.240;8.406;2023-08-12T02:34:25;22.30;99.40
3408;DHT22;1717;50.240;8.406;2023-08-12T02:36:52;22.30;99.80
3408;DHT22;1717;50.240;8.406;2023-08-12T02:39:19;22.20;99.90
3408;DHT22;1717;50.240;8.406;2023-08-12T02:41:46;22.20;99.90
3408;DHT22;1717;50.240;8.406;2023-08-12T02:44:12;22.20;99.90
3408;DHT22;1717;50.240;8.406;2023-08-12T02:46:39;22.10;99.90
3408;DHT22;1717;50.240;8.406;2023-08-12T02:49:07;22.10;99.90
3408;DHT22;1717;50.240;8.406;2023-08-12T02:51:34;22.20;99.90
3408;DHT22;1717;50.240;8.406;2023-08-12T02:54:01;22.00;99.90
3408;DHT22;1717;50.240;8.406;2023-08-12T02:56:28;22.20;99.90
3408;DHT22;1717;50.240;8.406;2023-08-12T02:58:54;22.00;99.90
3408;DHT22;1717;50.240;8.406;2023-08-12T03:01:22;21.90;99.90
3408;DHT22;1717;50.240;8.406;2023-08-12T03:03:49;21.90;99.90
3408;DHT22;1717;50.240;8.406;2023-08-12T03:06:17;21.90;99.90
3408;DHT22;1717;50.240;8.406;2023-08-12T03:08:44;21.90;99.90
3408;DHT22;1717;50.240;8.406;2023-08-12T03:11:11;21.90;99.90
3408;DHT22;1717;50.240;8.406;2023-08-12T03:13:38;21.80;99.90
3408;DHT22;1717;50.240;8.406;2023-08-12T03:16:08;21.80;99.90
3408;DHT22;1717;50.240;8.406;2023-08-12T03:18:37;21.70;99.90
3408;DHT22;1717;50.240;8.406;2023-08-12T03:21:05;21.70;99.90
3408;DHT22;1717;50.240;8.406;2023-08-12T03:23:34;21.70;99.90
3408;DHT22;1717;50.240;8.406;2023-08-12T03:26:01;21.70;99.90
3408;DHT22;1717;50.240;8.406;2023-08-12T03:28:28;21.60;99.90
3408;DHT22;1717;50.240;8.406;2023-08-12T03:30:55;21.60;99.90
3408;DHT22;1717;50.240;8.406;2023-08-12T03:33:21;21.60;99.90
3408;DHT22;1717;50.240;8.406;2023-08-12T03:35:49;21.60;99.90
3408;DHT22;1717;50.240;8.406;2023-08-12T03:38:16;21.60;99.90
3408;DHT22;1717;50.240;8.406;2023-08-12T03:40:44;21.50;99.90
3408;DHT22;1717;50.240;8.406;2023-08-12T03:43:11;21.50;99.90
3408;DHT22;1717;50.240;8.406;2023-08-12T03:45:40;21.50;99.90
3408;DHT22;1717;50.240;8.406;2023-08-12T03:48:07;21.50;99.90
3408;DHT22;1717;50.240;8.406;2023-08-12T03:50:34;21.50;99.90
3408;DHT22;1717;50.240;8.406;2023-08-12T03:53:01;21.50;99.90
3408;DHT22;1717;50.240;8.406;2023-08-12T03:55:30;21.50;99.90
3408;DHT22;1717;50.240;8.406;2023-08-12T03:57:59;21.50;99.90
3408;DHT22;1717;50.240;8.406;2023-08-12T04:00:26;21.40;99.90
3408;DHT22;1717;50.240;8.406;2023-08-12T04:02:53;21.40;99.90
3408;DHT22;1717;50.240;8.406;2023-08-12T04:05:20;21.40;99.90
3408;DHT22;1717;50.240;8.406;2023-08-12T04:07:47;21.40;99.90
3408;DHT22;1717;50.240;8.406;2023-08-12T04:10:13;21.40;99.90
3408;DHT22;1717;50.240;8.406;2023-08-12T04:12:40;21.40;99.90
3408;DHT22;1717;50.240;8.406;2023-08-12T04:15:09;21.30;99.90
3408;DHT22;1717;50.240;8.406;2023-08-12T04:17:36;21.30;99.90
3408;DHT22;1717;50.240;8.406;2023-08-12T04:20:06;21.40;99.90
3408;DHT22;1717;50.240;8.406;2023-08-12T04:22:33;21.30;99.90
3408;DHT22;1717;50.240;8.406;2023-08-12T04:25:00;21.30;99.90
3408;DHT22;1717;50.240;8.406;2023-08-12T04:27:27;21.30;99.90
3408;DHT22;1717;50.240;8.406;2023-08-12T04:29:53;21.30;99.90
3408;DHT22;1717;50.240;8.406;2023-08-12T04:32:22;21.30;99.90
3408;DHT22;1717;50.240;8.406;2023-08-12T04:34:48;21.30;99.90
3408;DHT22;1717;50.240;8.406;2023-08-12T04:37:15;21.30;99.90
3408;DHT22;1717;50.240;8.406;2023-08-12T04:39:42;21.30;99.90
3408;DHT22;1717;50.240;8.406;2023-08-12T04:42:09;21.30;99.90
3408;DHT22;1717;50.240;8.406;2023-08-12T04:44:36;21.30;99.90
3408;DHT22;1717;50.240;8.406;2023-08-12T04:47:03;21.30;99.90
3408;DHT22;1717;50.240;8.406;2023-08-12T04:49:31;21.30;99.90
3408;DHT22;1717;50.240;8.406;2023-08-12T04:51:58;21.30;99.90
3408;DHT22;1717;50.240;8.406;2023-08-12T04:54:25;21.30;99.90
3408;DHT22;1717;50.240;8.406;2023-08-12T04:56:52;21.30;99.90
3408;DHT22;1717;50.240;8.406;2023-08-12T04:59:19;21.20;99.90
3408;DHT22;1717;50.240;8.406;2023-08-12T05:01:45;21.20;99.90
3408;DHT22;1717;50.240;8.406;2023-08-12T05:04:12;21.30;99.90
3408;DHT22;1717;50.240;8.406;2023-08-12T05:06:40;21.20;99.90
3408;DHT22;1717;50.240;8.406;2023-08-12T05:09:07;21.20;99.90
3408;DHT22;1717;50.240;8.406;2023-08-12T05:11:34;21.10;99.90
3408;DHT22;1717;50.240;8.406;2023-08-12T05:14:01;21.10;99.90
3408;DHT22;1717;50.240;8.406;2023-08-12T05:16:28;21.00;99.90
3408;DHT22;1717;50.240;8.406;2023-08-12T05:18:55;20.90;99.90
3408;DHT22;1717;50.240;8.406;2023-08-12T05:21:22;20.90;99.90
3408;DHT22;1717;50.240;8.406;2023-08-12T05:23:50;20.80;99.90
3408;DHT22;1717;50.240;8.406;2023-08-12T05:26:17;20.90;99.90
3408;DHT22;1717;50.240;8.406;2023-08-12T05:28:45;20.70;99.90
3408;DHT22;1717;50.240;8.406;2023-08-12T05:31:12;20.70;99.90
3408;DHT22;1717;50.240;8.406;2023-08-12T05:33:39;20.60;99.90
3408;DHT22;1717;50.240;8.406;2023-08-12T05:36:06;20.60;99.90
3408;DHT22;1717;50.240;8.406;2023-08-12T05:38:34;20.70;99.90
3408;DHT22;1717;50.240;8.406;2023-08-12T05:41:02;20.70;99.90
3408;DHT22;1717;50.240;8.406;2023-08-12T05:43:32;20.70;99.90
3408;DHT22;1717;50.240;8.406;2023-08-12T05:45:59;20.60;99.90
3408;DHT22;1717;50.240;8.406;2023-08-12T05:48:26;20.70;99.90
3408;DHT22;1717;50.240;8.406;2023-08-12T05:50:53;20.70;99.90
3408;DHT22;1717;50.240;8.406;2023-08-12T05:53:21;20.80;99.90
3408;DHT22;1717;50.240;8.406;2023-08-12T05:55:48;20.70;99.90
3408;DHT22;1717;50.240;8.406;2023-08-12T05:58:16;20.80;99.90
3408;DHT22;1717;50.240;8.406;2023-08-12T06:00:43;20.80;99.90
3408;DHT22;1717;50.240;8.406;2023-08-12T06:03:11;20.80;99.90
3408;DHT22;1717;50.240;8.406;2023-08-12T06:05:39;20.80;99.90
3408;DHT22;1717;50.240;8.406;2023-08-12T06:08:05;20.90;99.90
3408;DHT22;1717;50.240;8.406;2023-08-12T06:10:33;20.80;99.90
3408;DHT22;1717;50.240;8.406;2023-08-12T06:13:00;20.90;99.90
3408;DHT22;1717;50.240;8.406;2023-08-12T06:15:28;20.90;99.90
3408;DHT22;1717;50.240;8.406;2023-08-12T06:17:55;20.90;99.90
3408;DHT22;1717;50.240;8.406;2023-08-12T06:20:22;20.90;99.90
3408;DHT22;1717;50.240;8.406;2023-08-12T06:22:49;21.00;99.90
3408;DHT22;1717;50.240;8.406;2023-08-12T06:25:16;21.00;99.90
3408;DHT22;1717;50.240;8.406;2023-08-12T06:27:43;21.00;99.90
3408;DHT22;1717;50.240;8.406;2023-08-12T06:30:11;21.00;99.90
3408;DHT22;1717;50.240;8.406;2023-08-12T06:32:40;21.00;99.90
3408;DHT22;1717;50.240;8.406;2023-08-12T06:35:07;21.00;99.90
3408;DHT22;1717;50.240;8.406;2023-08-12T06:37:34;21.10;99.90
3408;DHT22;1717;50.240;8.406;2023-08-12T06:40:02;21.10;99.90
3408;DHT22;1717;50.240;8.406;2023-08-12T06:42:29;21.20;99.90
3408;DHT22;1717;50.240;8.406;2023-08-12T06:44:57;21.20;99.90
3408;DHT22;1717;50.240;8.406;2023-08-12T06:47:24;21.40;99.90
3408;DHT22;1717;50.240;8.406;2023-08-12T06:49:54;21.40;99.90
3408;DHT22;1717;50.240;8.406;2023-08-12T06:52:21;21.50;99.90
3408;DHT22;1717;50.240;8.406;2023-08-12T06:54:48;21.50;99.90
3408;DHT22;1717;50.240;8.406;2023-08-12T06:57:14;21.70;99.90
3408;DHT22;1717;50.240;8.406;2023-08-12T06:59:41;21.70;99.90
3408;DHT22;1717;50.240;8.406;2023-08-12T07:02:08;21.80;99.90
3408;DHT22;1717;50.240;8.406;2023-08-12T07:04:35;21.90;99.90
3408;DHT22;1717;50.240;8.406;2023-08-12T07:07:03;22.00;99.90
3408;DHT22;1717;50.240;8.406;2023-08-12T07:09:30;22.10;99.90
3408;DHT22;1717;50.240;8.406;2023-08-12T07:11:57;22.10;99.90
3408;DHT22;1717;50.240;8.406;2023-08-12T07:14:24;22.20;99.90
3408;DHT22;1717;50.240;8.406;2023-08-12T07:16:51;22.30;99.90
3408;DHT22;1717;50.240;8.406;2023-08-12T07:19:18;22.30;99.90
3408;DHT22;1717;50.240;8.406;2023-08-12T07:21:44;22.40;99.90
3408;DHT22;1717;50.240;8.406;2023-08-12T07:24:13;22.40;99.90
3408;DHT22;1717;50.240;8.406;2023-08-12T07:26:39;22.50;99.90
3408;DHT22;1717;50.240;8.406;2023-08-12T07:29:06;22.60;99.90
3408;DHT22;1717;50.240;8.406;2023-08-12T07:31:33;22.50;99.90
3408;DHT22;1717;50.240;8.406;2023-08-12T07:34:00;22.70;99.90
3408;DHT22;1717;50.240;8.406;2023-08-12T07:36:27;22.80;99.90
3408;DHT22;1717;50.240;8.406;2023-08-12T07:38:54;22.80;99.90
3408;DHT22;1717;50.240;8.406;2023-08-12T07:41:23;22.80;99.90
3408;DHT22;1717;50.240;8.406;2023-08-12T07:43:52;22.80;99.90
3408;DHT22;1717;50.240;8.406;2023-08-12T07:46:19;22.90;99.90
3408;DHT22;1717;50.240;8.406;2023-08-12T07:48:46;22.80;99.90
3408;DHT22;1717;50.240;8.406;2023-08-12T07:51:13;22.80;99.90
3408;DHT22;1717;50.240;8.406;2023-08-12T07:53:40;22.90;99.90
3408;DHT22;1717;50.240;8.406;2023-08-12T07:56:07;22.90;99.90
3408;DHT22;1717;50.240;8.406;2023-08-12T07:58:35;22.80;99.90
3408;DHT22;1717;50.240;8.406;2023-08-12T08:01:02;22.90;99.90
3408;DHT22;1717;50.240;8.406;2023-08-12T08:03:30;22.90;99.90
3408;DHT22;1717;50.240;8.406;2023-08-12T08:05:57;22.90;99.90
3408;DHT22;1717;50.240;8.406;2023-08-12T08:08:24;22.90;99.90
3408;DHT22;1717;50.240;8.406;2023-08-12T08:10:50;22.80;99.90
3408;DHT22;1717;50.240;8.406;2023-08-12T08:13:17;22.90;99.90
3408;DHT22;1717;50.240;8.406;2023-08-12T08:15:45;22.80;99.90
3408;DHT22;1717;50.240;8.406;2023-08-12T08:18:12;22.80;99.90
3408;DHT22;1717;50.240;8.406;2023-08-12T08:20:41;22.80;99.90
3408;DHT22;1717;50.240;8.406;2023-08-12T08:23:08;22.80;99.90
3408;DHT22;1717;50.240;8.406;2023-08-12T08:25:34;22.80;99.90
3408;DHT22;1717;50.240;8.406;2023-08-12T08:28:01;22.80;99.90
3408;DHT22;1717;50.240;8.406;2023-08-12T08:30:28;22.80;99.90
3408;DHT22;1717;50.240;8.406;2023-08-12T08:32:56;22.90;99.90
3408;DHT22;1717;50.240;8.406;2023-08-12T08:35:23;23.00;99.90
3408;DHT22;1717;50.240;8.406;2023-08-12T08:37:50;23.00;99.90
3408;DHT22;1717;50.240;8.406;2023-08-12T08:40:17;23.10;99.90
3408;DHT22;1717;50.240;8.406;2023-08-12T08:42:46;23.10;99.90
3408;DHT22;1717;50.240;8.406;2023-08-12T08:45:47;23.20;99.90
3408;DHT22;1717;50.240;8.406;2023-08-12T08:59:18;23.40;99.90
3408;DHT22;1717;50.240;8.406;2023-08-12T09:01:49;23.50;99.90
3408;DHT22;1717;50.240;8.406;2023-08-12T09:04:17;23.60;99.90
3408;DHT22;1717;50.240;8.406;2023-08-12T09:06:45;23.70;99.90
3408;DHT22;1717;50.240;8.406;2023-08-12T09:09:14;23.80;99.90
3408;DHT22;1717;50.240;8.406;2023-08-12T09:14:10;24.00;99.90
3408;DHT22;1717;50.240;8.406;2023-08-12T09:16:38;24.00;99.90
3408;DHT22;1717;50.240;8.406;2023-08-12T09:19:05;24.10;99.90
3408;DHT22;1717;50.240;8.406;2023-08-12T09:21:32;24.10;99.90
3408;DHT22;1717;50.240;8.406;2023-08-12T09:24:02;24.10;99.90
3408;DHT22;1717;50.240;8.406;2023-08-12T09:26:30;24.10;99.90
3408;DHT22;1717;50.240;8.406;2023-08-12T09:28:59;24.10;99.90
3408;DHT22;1717;50.240;8.406;2023-08-12T09:31:27;24.20;99.90
3408;DHT22;1717;50.240;8.406;2023-08-12T09:33:57;24.20;99.90
3408;DHT22;1717;50.240;8.406;2023-08-12T09:36:28;24.20;99.90
3408;DHT22;1717;50.240;8.406;2023-08-12T09:38:56;24.20;99.90
3408;DHT22;1717;50.240;8.406;2023-08-12T09:41:24;24.20;99.90
3408;DHT22;1717;50.240;8.406;2023-08-12T09:43:51;24.20;99.90
3408;DHT22;1717;50.240;8.406;2023-08-12T09:46:18;24.30;99.90
3408;DHT22;1717;50.240;8.406;2023-08-12T09:48:49;24.40;99.90
3408;DHT22;1717;50.240;8.406;2023-08-12T09:51:17;24.40;99.90
3408;DHT22;1717;50.240;8.406;2023-08-12T09:53:45;24.50;99.90
3408;DHT22;1717;50.240;8.406;2023-08-12T09:56:17;24.60;99.90
3408;DHT22;1717;50.240;8.406;2023-08-12T09:58:48;24.60;99.90
3408;DHT22;1717;50.240;8.406;2023-08-12T10:01:18;24.80;99.90
3408;DHT22;1717;50.240;8.406;2023-08-12T10:03:48;24.80;99.90
3408;DHT22;1717;50.240;8.406;2023-08-12T10:06:17;24.80;99.90
3408;DHT22;1717;50.240;8.406;2023-08-12T10:08:46;24.80;99.90
3408;DHT22;1717;50.240;8.406;2023-08-12T10:11:13;24.80;99.90
3408;DHT22;1717;50.240;8.406;2023-08-12T10:13:40;24.80;99.90
3408;DHT22;1717;50.240;8.406;2023-08-12T10:16:08;24.80;99.90
3408;DHT22;1717;50.240;8.406;2023-08-12T10:18:36;24.80;99.90
3408;DHT22;1717;50.240;8.406;2023-08-12T10:21:03;24.80;99.90
3408;DHT22;1717;50.240;8.406;2023-08-12T10:23:32;24.80;99.90
3408;DHT22;1717;50.240;8.406;2023-08-12T10:26:00;24.80;99.90
3408;DHT22;1717;50.240;8.406;2023-08-12T10:28:29;24.80;99.90
3408;DHT22;1717;50.240;8.406;2023-08-12T10:30:57;24.80;99.90
3408;DHT22;1717;50.240;8.406;2023-08-12T10:33:24;24.70;99.90
3408;DHT22;1717;50.240;8.406;2023-08-12T10:35:51;24.60;99.90
3408;DHT22;1717;50.240;8.406;2023-08-12T10:38:24;24.50;99.90
3408;DHT22;1717;50.240;8.406;2023-08-12T10:40:53;24.50;99.90
3408;DHT22;1717;50.240;8.406;2023-08-12T10:43:49;24.40;99.90
3408;DHT22;1717;50.240;8.406;2023-08-12T10:46:22;24.30;99.90
3408;DHT22;1717;50.240;8.406;2023-08-12T10:48:57;24.30;99.90
3408;DHT22;1717;50.240;8.406;2023-08-12T10:51:40;24.10;99.90
3408;DHT22;1717;50.240;8.406;2023-08-12T10:54:14;24.10;99.90
3408;DHT22;1717;50.240;8.406;2023-08-12T10:57:16;24.10;99.90
3408;DHT22;1717;50.240;8.406;2023-08-12T10:59:53;24.10;99.90
3408;DHT22;1717;50.240;8.406;2023-08-12T11:02:22;24.00;99.90
3408;DHT22;1717;50.240;8.406;2023-08-12T11:04:51;23.90;99.90
3408;DHT22;1717;50.240;8.406;2023-08-12T11:07:19;23.90;99.90
3408;DHT22;1717;50.240;8.406;2023-08-12T11:09:51;23.80;99.90
3408;DHT22;1717;50.240;8.406;2023-08-12T11:12:28;23.80;99.90
3408;DHT22;1717;50.240;8.406;2023-08-12T11:14:58;23.70;99.90
3408;DHT22;1717;50.240;8.406;2023-08-12T11:17:36;23.60;99.90
3408;DHT22;1717;50.240;8.406;2023-08-12T11:20:04;23.60;99.90
3408;DHT22;1717;50.240;8.406;2023-08-12T11:22:33;23.50;99.90
3408;DHT22;1717;50.240;8.406;2023-08-12T11:25:02;23.60;99.90
3408;DHT22;1717;50.240;8.406;2023-08-12T11:27:39;23.60;99.90
3408;DHT22;1717;50.240;8.406;2023-08-12T11:30:07;23.60;99.90
3408;DHT22;1717;50.240;8.406;2023-08-12T11:32:36;23.70;99.90
3408;DHT22;1717;50.240;8.406;2023-08-12T11:35:04;23.70;99.90
3408;DHT22;1717;50.240;8.406;2023-08-12T11:37:32;23.80;99.90
3408;DHT22;1717;50.240;8.406;2023-08-12T11:40:01;23.90;99.90
3408;DHT22;1717;50.240;8.406;2023-08-12T11:42:29;24.00;99.90
3408;DHT22;1717;50.240;8.406;2023-08-12T11:44:57;24.10;99.90
3408;DHT22;1717;50.240;8.406;2023-08-12T11:47:24;24.20;99.90
3408;DHT22;1717;50.240;8.406;2023-08-12T11:49:52;24.30;99.90
3408;DHT22;1717;50.240;8.406;2023-08-12T11:52:19;24.40;99.90
3408;DHT22;1717;50.240;8.406;2023-08-12T11:54:46;24.50;99.90
3408;DHT22;1717;50.240;8.406;2023-08-12T11:57:14;24.60;99.90
3408;DHT22;1717;50.240;8.406;2023-08-12T11:59:41;24.70;99.90
3408;DHT22;1717;50.240;8.406;2023-08-12T12:02:10;24.80;99.90
3408;DHT22;1717;50.240;8.406;2023-08-12T12:04:37;24.80;99.90
3408;DHT22;1717;50.240;8.406;2023-08-12T12:07:17;24.90;99.90
3408;DHT22;1717;50.240;8.406;2023-08-12T12:09:44;24.90;99.90
3408;DHT22;1717;50.240;8.406;2023-08-12T12:12:10;25.00;99.90
3408;DHT22;1717;50.240;8.406;2023-08-12T12:14:37;25.00;99.90
3408;DHT22;1717;50.240;8.406;2023-08-12T12:17:08;25.00;99.90
3408;DHT22;1717;50.240;8.406;2023-08-12T12:19:36;25.10;99.90
3408;DHT22;1717;50.240;8.406;2023-08-12T12:22:03;25.10;99.90
3408;DHT22;1717;50.240;8.406;2023-08-12T12:24:31;25.10;99.90
3408;DHT22;1717;50.240;8.406;2023-08-12T12:26:58;25.10;99.90
3408;DHT22;1717;50.240;8.406;2023-08-12T12:29:25;25.10;99.90
3408;DHT22;1717;50.240;8.406;2023-08-12T12:31:52;25.30;99.90
3408;DHT22;1717;50.240;8.406;2023-08-12T12:34:20;25.40;99.90
3408;DHT22;1717;50.240;8.406;2023-08-12T12:36:48;25.50;99.90
3408;DHT22;1717;50.240;8.406;2023-08-12T12:39:14;25.60;99.90
3408;DHT22;1717;50.240;8.406;2023-08-12T12:41:41;25.70;99.90
3408;DHT22;1717;50.240;8.406;2023-08-12T12:44:08;25.80;99.90
3408;DHT22;1717;50.240;8.406;2023-08-12T12:46:35;25.90;99.90
3408;DHT22;1717;50.240;8.406;2023-08-12T12:49:02;26.00;99.90
3408;DHT22;1717;50.240;8.406;2023-08-12T12:51:30;26.20;99.90
3408;DHT22;1717;50.240;8.406;2023-08-12T12:53:57;26.30;99.90
3408;DHT22;1717;50.240;8.406;2023-08-12T12:56:24;26.30;99.90
3408;DHT22;1717;50.240;8.406;2023-08-12T12:58:50;26.40;99.90
3408;DHT22;1717;50.240;8.406;2023-08-12T13:01:17;26.50;99.90
3408;DHT22;1717;50.240;8.406;2023-08-12T13:03:44;26.60;99.90
3408;DHT22;1717;50.240;8.406;2023-08-12T13:06:11;26.60;99.90
3408;DHT22;1717;50.240;8.406;2023-08-12T13:08:39;26.70;99.90
3408;DHT22;1717;50.240;8.406;2023-08-12T13:11:06;26.80;99.90
3408;DHT22;1717;50.240;8.406;2023-08-12T13:13:32;26.90;99.90
3408;DHT22;1717;50.240;8.406;2023-08-12T13:15:59;27.00;99.90
3408;DHT22;1717;50.240;8.406;2023-08-12T13:18:26;27.10;99.90
3408;DHT22;1717;50.240;8.406;2023-08-12T13:20:53;27.20;99.90
3408;DHT22;1717;50.240;8.406;2023-08-12T13:23:20;27.20;99.90
3408;DHT22;1717;50.240;8.406;2023-08-12T13:25:48;27.30;99.90
3408;DHT22;1717;50.240;8.406;2023-08-12T13:28:15;27.40;99.90
3408;DHT22;1717;50.240;8.406;2023-08-12T13:30:43;27.40;99.90
3408;DHT22;1717;50.240;8.406;2023-08-12T13:33:10;27.50;99.90
3408;DHT22;1717;50.240;8.406;2023-08-12T13:35:37;27.50;99.90
3408;DHT22;1717;50.240;8.406;2023-08-12T13:38:04;27.60;99.90
3408;DHT22;1717;50.240;8.406;2023-08-12T13:40:31;27.70;99.90
3408;DHT22;1717;50.240;8.406;2023-08-12T13:42:59;27.80;99.90
3408;DHT22;1717;50.240;8.406;2023-08-12T13:45:26;27.80;99.90
3408;DHT22;1717;50.240;8.406;2023-08-12T13:47:52;27.80;99.90
3408;DHT22;1717;50.240;8.406;2023-08-12T13:50:20;27.90;99.90
3408;DHT22;1717;50.240;8.406;2023-08-12T13:52:47;27.90;99.90
3408;DHT22;1717;50.240;8.406;2023-08-12T13:55:14;28.00;99.90
3408;DHT22;1717;50.240;8.406;2023-08-12T13:57:41;28.00;99.90
3408;DHT22;1717;50.240;8.406;2023-08-12T14:00:10;28.10;99.90
3408;DHT22;1717;50.240;8.406;2023-08-12T14:02:39;28.20;99.90
3408;DHT22;1717;50.240;8.406;2023-08-12T14:05:07;28.30;99.90
3408;DHT22;1717;50.240;8.406;2023-08-12T14:07:35;28.30;99.90
3408;DHT22;1717;50.240;8.406;2023-08-12T14:10:03;28.40;99.90
3408;DHT22;1717;50.240;8.406;2023-08-12T14:12:30;28.40;99.90
3408;DHT22;1717;50.240;8.406;2023-08-12T14:14:57;28.30;99.90
3408;DHT22;1717;50.240;8.406;2023-08-12T14:17:25;28.30;99.90
3408;DHT22;1717;50.240;8.406;2023-08-12T14:19:52;28.30;99.90
3408;DHT22;1717;50.240;8.406;2023-08-12T14:22:20;28.20;99.90
3408;DHT22;1717;50.240;8.406;2023-08-12T14:24:47;28.10;99.90
3408;DHT22;1717;50.240;8.406;2023-08-12T14:27:14;28.10;99.90
3408;DHT22;1717;50.240;8.406;2023-08-12T14:29:43;28.00;99.90
3408;DHT22;1717;50.240;8.406;2023-08-12T14:32:10;27.90;99.90
3408;DHT22;1717;50.240;8.406;2023-08-12T14:34:38;27.80;99.90
3408;DHT22;1717;50.240;8.406;2023-08-12T14:37:05;27.80;99.90
3408;DHT22;1717;50.240;8.406;2023-08-12T14:39:33;27.80;99.90
3408;DHT22;1717;50.240;8.406;2023-08-12T14:42:00;27.60;99.90
3408;DHT22;1717;50.240;8.406;2023-08-12T14:44:28;27.60;99.90
3408;DHT22;1717;50.240;8.406;2023-08-12T14:46:56;27.50;99.90
3408;DHT22;1717;50.240;8.406;2023-08-12T14:49:23;27.40;99.90
3408;DHT22;1717;50.240;8.406;2023-08-12T14:51:51;27.40;99.90
3408;DHT22;1717;50.240;8.406;2023-08-12T14:54:18;27.30;99.90
3408;DHT22;1717;50.240;8.406;2023-08-12T14:56:45;27.30;99.90
3408;DHT22;1717;50.240;8.406;2023-08-12T14:59:11;27.20;99.90
3408;DHT22;1717;50.240;8.406;2023-08-12T15:01:38;27.10;99.90
3408;DHT22;1717;50.240;8.406;2023-08-12T15:04:05;27.10;99.90
3408;DHT22;1717;50.240;8.406;2023-08-12T15:06:32;27.10;99.90
3408;DHT22;1717;50.240;8.406;2023-08-12T15:09:01;27.10;99.90
3408;DHT22;1717;50.240;8.406;2023-08-12T15:11:30;26.90;99.90
3408;DHT22;1717;50.240;8.406;2023-08-12T15:13:57;26.90;99.90
3408;DHT22;1717;50.240;8.406;2023-08-12T15:16:23;26.80;99.90
3408;DHT22;1717;50.240;8.406;2023-08-12T15:18:50;26.80;99.90
3408;DHT22;1717;50.240;8.406;2023-08-12T15:21:17;26.70;99.90
3408;DHT22;1717;50.240;8.406;2023-08-12T15:23:44;26.70;99.90
3408;DHT22;1717;50.240;8.406;2023-08-12T15:26:12;26.60;99.90
3408;DHT22;1717;50.240;8.406;2023-08-12T15:28:39;26.60;99.90
3408;DHT22;1717;50.240;8.406;2023-08-12T15:31:05;26.50;99.90
3408;DHT22;1717;50.240;8.406;2023-08-12T15:33:32;26.50;99.90
3408;DHT22;1717;50.240;8.406;2023-08-12T15:35:59;26.40;99.90
3408;DHT22;1717;50.240;8.406;2023-08-12T15:38:26;26.40;99.90
3408;DHT22;1717;50.240;8.406;2023-08-12T15:40:53;26.40;99.90
3408;DHT22;1717;50.240;8.406;2023-08-12T15:43:21;26.30;99.90
3408;DHT22;1717;50.240;8.406;2023-08-12T15:45:48;26.30;99.90
3408;DHT22;1717;50.240;8.406;2023-08-12T15:48:15;26.20;99.90
3408;DHT22;1717;50.240;8.406;2023-08-12T15:50:43;26.10;99.90
3408;DHT22;1717;50.240;8.406;2023-08-12T15:53:10;26.10;99.90
3408;DHT22;1717;50.240;8.406;2023-08-12T15:55:37;26.00;99.90
3408;DHT22;1717;50.240;8.406;2023-08-12T15:58:04;26.00;99.90
3408;DHT22;1717;50.240;8.406;2023-08-12T16:00:32;25.90;99.90
3408;DHT22;1717;50.240;8.406;2023-08-12T16:02:59;25.90;99.90
3408;DHT22;1717;50.240;8.406;2023-08-12T16:05:25;25.80;99.90
3408;DHT22;1717;50.240;8.406;2023-08-12T16:07:52;25.80;99.90
3408;DHT22;1717;50.240;8.406;2023-08-12T16:10:19;25.70;99.90
3408;DHT22;1717;50.240;8.406;2023-08-12T16:12:46;25.70;99.90
3408;DHT22;1717;50.240;8.406;2023-08-12T16:15:13;25.70;99.90
3408;DHT22;1717;50.240;8.406;2023-08-12T16:17:41;25.70;99.90
3408;DHT22;1717;50.240;8.406;2023-08-12T16:20:08;25.60;99.90